^^
Station Historical Data
Daily Summary for June 8, 2017 Units:  English    Metric   Both
« Previous Day
Next Day »
Daily Weekly Monthly Yearly Custom
  High: Low: Average:
Temperature: 71.9 °F 47.1 °F 60.6 °F
Dew Point: 55.4 °F 40.4 °F 48.5 °F
Humidity: 94 % 39 % 68 %
Wind Speed: 2.3 mph 0.0 mph 0.1 mph
Wind Gust: 8.1 mph - -
Wind:- - ENE
Pressure: 30.06 in 29.82 in -
Precipitation: 0.00 in    
Historical Graphs
 
 
Tabular Data for June 8, 2017
Time Temperature Dew Point Pressure Wind Wind Speed Wind Gust Humidity Rainfall Rate (Hourly) solar Conditions
00:03 53.4 °F 50.2 °F 30.06 in Calm     89 % 0.00 in 0.0 W/m2 RA
00:08 53.0 °F 49.8 °F 30.06 in Calm     89 % 0.00 in 0.0 W/m2 RA
00:13 52.7 °F 49.5 °F 30.06 in Calm     89 % 0.00 in 0.0 W/m2 CLR
00:18 52.6 °F 49.8 °F 30.06 in Calm     90 % 0.00 in 0.0 W/m2 CLR
00:23 52.6 °F 49.8 °F 30.06 in Calm     90 % 0.00 in 0.0 W/m2 CLR
00:28 52.3 °F 49.5 °F 30.06 in Calm     90 % 0.00 in 0.0 W/m2 CLR
00:34 52.1 °F 49.3 °F 30.05 in Calm     90 % 0.00 in 0.0 W/m2 CLR
00:39 52.1 °F 49.6 °F 30.05 in Calm     91 % 0.00 in 0.0 W/m2 CLR
00:44 52.0 °F 49.5 °F 30.05 in Calm     91 % 0.00 in 0.0 W/m2 CLR
00:49 51.7 °F 49.2 °F 30.05 in Calm     91 % 0.00 in 0.0 W/m2 CLR
00:54 51.6 °F 49.1 °F 30.05 in Calm     91 % 0.00 in 0.0 W/m2 CLR
00:59 51.5 °F 49.0 °F 30.05 in Calm     91 % 0.00 in 0.0 W/m2 CLR
01:04 51.5 °F 49.0 °F 30.05 in Calm     91 % 0.00 in 0.0 W/m2 CLR
01:09 51.3 °F 48.8 °F 30.05 in Calm     91 % 0.00 in 0.0 W/m2 CLR
01:14 51.1 °F 48.6 °F 30.05 in Calm     91 % 0.00 in 0.0 W/m2 CLR
01:19 51.0 °F 48.5 °F 30.05 in Calm     91 % 0.00 in 0.0 W/m2 CLR
01:24 50.9 °F 48.4 °F 30.05 in Calm     91 % 0.00 in 0.0 W/m2 CLR
01:29 50.8 °F 48.3 °F 30.05 in Calm     91 % 0.00 in 0.0 W/m2 CLR
01:34 50.7 °F 48.2 °F 30.05 in Calm     91 % 0.00 in 0.0 W/m2 CLR
01:39 50.5 °F 48.3 °F 30.05 in Calm     92 % 0.00 in 0.0 W/m2 CLR
01:44 50.5 °F 48.3 °F 30.05 in Calm     92 % 0.00 in 0.0 W/m2 CLR
01:49 50.6 °F 48.4 °F 30.05 in Calm     92 % 0.00 in 0.0 W/m2 CLR
01:54 50.4 °F 48.2 °F 30.05 in Calm     92 % 0.00 in 0.0 W/m2 CLR
01:59 50.4 °F 48.2 °F 30.05 in Calm     92 % 0.00 in 0.0 W/m2 CLR
02:04 50.3 °F 48.1 °F 30.05 in Calm     92 % 0.00 in 0.0 W/m2 CLR
02:09 50.1 °F 47.9 °F 30.04 in Calm     92 % 0.00 in 0.0 W/m2 CLR
02:14 50.2 °F 48.0 °F 30.05 in Calm     92 % 0.00 in 0.0 W/m2 CLR
02:19 50.0 °F 47.8 °F 30.04 in Calm     92 % 0.00 in 0.0 W/m2 CLR
02:24 49.9 °F 47.7 °F 30.04 in Calm     92 % 0.00 in 0.0 W/m2 CLR
02:29 49.8 °F 47.6 °F 30.04 in Calm     92 % 0.00 in 0.0 W/m2 CLR
02:34 49.7 °F 47.5 °F 30.04 in Calm     92 % 0.00 in 0.0 W/m2 CLR
02:39 49.5 °F 47.3 °F 30.04 in Calm     92 % 0.00 in 0.0 W/m2 CLR
02:45 49.6 °F 47.7 °F 30.04 in Calm     93 % 0.00 in 0.0 W/m2 CLR
02:50 49.7 °F 47.8 °F 30.04 in Calm     93 % 0.00 in 0.0 W/m2 CLR
02:55 49.5 °F 47.6 °F 30.03 in Calm     93 % 0.00 in 0.0 W/m2 CLR
03:00 49.3 °F 47.1 °F 30.03 in Calm     92 % 0.00 in 0.0 W/m2 CLR
03:05 49.4 °F 47.5 °F 30.04 in Calm     93 % 0.00 in 0.0 W/m2 CLR
03:10 49.3 °F 47.3 °F 30.04 in Calm     93 % 0.00 in 0.0 W/m2 CLR
03:15 49.1 °F 47.2 °F 30.04 in Calm     93 % 0.00 in 0.0 W/m2 CLR
03:20 49.0 °F 47.1 °F 30.03 in Calm     93 % 0.00 in 0.0 W/m2 CLR
03:25 49.0 °F 47.1 °F 30.03 in Calm     93 % 0.00 in 0.0 W/m2 CLR
03:30 49.0 °F 47.1 °F 30.03 in Calm     93 % 0.00 in 0.0 W/m2 CLR
03:35 48.9 °F 47.0 °F 30.03 in Calm     93 % 0.00 in 0.0 W/m2 CLR
03:40 48.9 °F 47.0 °F 30.03 in Calm     93 % 0.00 in 0.0 W/m2 CLR
03:45 48.9 °F 47.0 °F 30.03 in Calm     93 % 0.00 in 0.0 W/m2 CLR
03:50 48.8 °F 46.9 °F 30.03 in Calm     93 % 0.00 in 0.0 W/m2 CLR
03:55 48.5 °F 46.6 °F 30.03 in Calm     93 % 0.00 in 0.0 W/m2 CLR
04:00 48.3 °F 46.4 °F 30.03 in Calm     93 % 0.00 in 0.0 W/m2 CLR
04:05 48.1 °F 46.2 °F 30.03 in Calm     93 % 0.00 in 0.0 W/m2 CLR
04:10 48.0 °F 46.1 °F 30.03 in Calm     93 % 0.00 in 0.0 W/m2 CLR
04:15 47.9 °F 46.0 °F 30.03 in Calm     93 % 0.00 in 0.0 W/m2 CLR
04:20 47.9 °F 46.0 °F 30.03 in Calm     93 % 0.00 in 0.0 W/m2 CLR
04:25 48.0 °F 46.1 °F 30.03 in Calm     93 % 0.00 in 0.0 W/m2 CLR
04:30 48.1 °F 46.2 °F 30.02 in Calm     93 % 0.00 in 0.0 W/m2 CLR
04:35 48.1 °F 46.2 °F 30.02 in Calm     93 % 0.00 in 0.0 W/m2 CLR
04:40 48.1 °F 46.2 °F 30.02 in Calm     93 % 0.00 in 0.0 W/m2 CLR
04:45 48.1 °F 46.2 °F 30.02 in Calm     93 % 0.00 in 0.0 W/m2 CLR
04:50 47.9 °F 46.0 °F 30.02 in Calm     93 % 0.00 in 0.0 W/m2 CLR
04:55 47.6 °F 45.7 °F 30.03 in Calm     93 % 0.00 in 0.0 W/m2 CLR
05:00 47.4 °F 45.5 °F 30.03 in Calm     93 % 0.00 in 0.0 W/m2 CLR
05:05 47.5 °F 45.6 °F 30.02 in Calm     93 % 0.00 in 0.0 W/m2 CLR
05:10 47.5 °F 45.6 °F 30.02 in Calm     93 % 0.00 in 0.0 W/m2 CLR
05:15 47.3 °F 45.4 °F 30.03 in Calm     93 % 0.00 in 0.0 W/m2 CLR
05:20 47.4 °F 45.8 °F 30.02 in Calm     94 % 0.00 in 0.0 W/m2 CLR
05:25 47.5 °F 45.9 °F 30.03 in Calm     94 % 0.00 in 0.0 W/m2 CLR
05:30 47.3 °F 45.4 °F 30.03 in Calm     93 % 0.00 in 0.0 W/m2 CLR
05:36 47.3 °F 45.7 °F 30.03 in Calm     94 % 0.00 in 0.0 W/m2 CLR
05:41 47.4 °F 45.8 °F 30.03 in Calm     94 % 0.00 in 5.0 W/m2 CLR
05:46 47.4 °F 45.8 °F 30.03 in Calm     94 % 0.00 in 7.0 W/m2 CLR
05:51 47.2 °F 45.6 °F 30.03 in Calm     94 % 0.00 in 7.0 W/m2 CLR
05:56 47.3 °F 45.7 °F 30.03 in Calm     94 % 0.00 in 9.0 W/m2 CLR
06:01 47.2 °F 45.6 °F 30.03 in Calm     94 % 0.00 in 11.0 W/m2 CLR
06:06 47.2 °F 45.6 °F 30.04 in Calm     94 % 0.00 in 12.0 W/m2 CLR
06:11 47.1 °F 45.5 °F 30.03 in Calm     94 % 0.00 in 12.0 W/m2 CLR
06:16 47.3 °F 45.7 °F 30.03 in Calm     94 % 0.00 in 14.0 W/m2 CLR
06:21 47.6 °F 46.0 °F 30.03 in Calm     94 % 0.00 in 16.0 W/m2 CLR
06:26 47.8 °F 46.2 °F 30.04 in Calm     94 % 0.00 in 18.0 W/m2 CLR
06:31 48.3 °F 46.7 °F 30.04 in Calm     94 % 0.00 in 18.0 W/m2 CLR
06:36 48.7 °F 47.1 °F 30.04 in Calm     94 % 0.00 in 25.0 W/m2 CLR
06:41 49.0 °F 47.3 °F 30.04 in Calm     94 % 0.00 in 21.0 W/m2 CLR
06:46 49.5 °F 47.8 °F 30.04 in Calm     94 % 0.00 in 21.0 W/m2 CLR
06:51 49.8 °F 48.1 °F 30.03 in Calm     94 % 0.00 in 21.0 W/m2 CLR
06:56 50.1 °F 48.4 °F 30.03 in Calm     94 % 0.00 in 53.0 W/m2 CLR
06:57 50.1 °F 48.4 °F 30.03 in Calm     94 % 0.00 in 47.0 W/m2 CLR
07:02 50.5 °F 48.8 °F 30.03 in Calm     94 % 0.00 in 23.0 W/m2 CLR
07:07 51.0 °F 49.3 °F 30.04 in Calm     94 % 0.00 in 26.0 W/m2 CLR
07:12 51.4 °F 49.4 °F 30.04 in Calm     93 % 0.00 in 25.0 W/m2 CLR
07:17 51.9 °F 49.9 °F 30.04 in Calm     93 % 0.00 in 25.0 W/m2 CLR
07:22 52.3 °F 50.3 °F 30.04 in Calm   1.2 mph 93 % 0.00 in 28.0 W/m2 CLR
07:27 52.8 °F 50.8 °F 30.04 in Calm   1.2 mph 93 % 0.00 in 26.0 W/m2 CLR
07:32 53.3 °F 51.3 °F 30.04 in Calm   1.2 mph 93 % 0.00 in 28.0 W/m2 CLR
07:37 53.8 °F 51.5 °F 30.04 in Calm     92 % 0.00 in 28.0 W/m2 CLR
07:42 54.1 °F 51.8 °F 30.04 in Calm     92 % 0.00 in 30.0 W/m2 CLR
07:47 54.6 °F 52.0 °F 30.03 in Calm     91 % 0.00 in 30.0 W/m2 CLR
07:52 55.1 °F 52.5 °F 30.03 in Calm     91 % 0.00 in 30.0 W/m2 CLR
07:57 55.5 °F 52.6 °F 30.03 in Calm     90 % 0.00 in 32.0 W/m2 CLR
08:02 56.0 °F 52.8 °F 30.03 in Calm     89 % 0.00 in 33.0 W/m2 CLR
08:12 56.8 °F 53.0 °F 30.03 in Calm   1.2 mph 87 % 0.00 in 37.0 W/m2 CLR
08:17 57.4 °F 53.2 °F 30.03 in Calm   1.2 mph 86 % 0.00 in 40.0 W/m2 CLR
08:27 58.8 °F 53.6 °F 30.03 in Calm     83 % 0.00 in 42.0 W/m2 CLR
08:32 58.9 °F 53.1 °F 30.03 in Calm     81 % 0.00 in 53.0 W/m2 CLR
08:37 59.3 °F 53.1 °F 30.03 in Calm   1.2 mph 80 % 0.00 in 46.0 W/m2 CLR
08:42 59.4 °F 52.5 °F 30.03 in Calm   1.2 mph 78 % 0.00 in 49.0 W/m2 CLR
08:47 60.0 °F 53.1 °F 30.03 in Calm     78 % 0.00 in 44.0 W/m2 CLR
08:52 60.7 °F 53.8 °F 30.03 in Calm   1.2 mph 78 % 0.00 in 47.0 W/m2 CLR
08:57 60.8 °F 53.2 °F 30.03 in Calm   1.2 mph 76 % 0.00 in 49.0 W/m2 CLR
09:02 61.1 °F 53.5 °F 30.03 in Calm   1.2 mph 76 % 0.00 in 227.0 W/m2 CLR
09:07 61.4 °F 53.0 °F 30.03 in Calm   1.2 mph 74 % 0.00 in 561.0 W/m2 CLR
09:12 61.5 °F 53.1 °F 30.03 in Calm   1.2 mph 74 % 0.00 in 621.0 W/m2 CLR
09:17 61.7 °F 52.6 °F 30.02 in Calm   1.2 mph 72 % 0.00 in 615.0 W/m2 CLR
09:22 62.7 °F 53.5 °F 30.02 in Calm   1.2 mph 72 % 0.00 in 649.0 W/m2 CLR
09:27 63.3 °F 53.7 °F 30.02 in Calm   1.2 mph 71 % 0.00 in 434.0 W/m2 CLR
09:33 63.7 °F 53.7 °F 30.02 in SW 0.3 mph 1.2 mph 70 % 0.00 in 628.0 W/m2 CLR
09:38 64.7 °F 54.3 °F 30.02 in Calm   3.5 mph 69 % 0.00 in 606.0 W/m2 CLR
09:43 64.9 °F 53.7 °F 30.02 in NW 0.2 mph 3.5 mph 67 % 0.00 in 656.0 W/m2 CLR
09:48 65.2 °F 54.0 °F 30.02 in NNE 0.9 mph 3.5 mph 67 % 0.00 in 476.0 W/m2 CLR
09:53 64.7 °F 53.1 °F 30.02 in Calm   3.5 mph 66 % 0.00 in 334.0 W/m2 CLR
09:58 64.6 °F 53.4 °F 30.02 in Calm   3.5 mph 67 % 0.00 in 362.0 W/m2 CLR
10:03 65.3 °F 54.1 °F 30.02 in Calm   3.5 mph 67 % 0.00 in 541.0 W/m2 CLR
10:08 65.5 °F 54.2 °F 30.02 in Calm   3.5 mph 67 % 0.00 in 547.0 W/m2 CLR
10:13 65.6 °F 53.9 °F 30.02 in Calm   1.2 mph 66 % 0.00 in 573.0 W/m2 CLR
10:18 65.8 °F 54.1 °F 30.02 in Calm   1.2 mph 66 % 0.00 in 462.0 W/m2 CLR
10:23 65.8 °F 54.1 °F 30.01 in Calm   3.5 mph 66 % 0.00 in 441.0 W/m2 CLR
10:28 65.9 °F 53.8 °F 30.01 in North 0.5 mph 3.5 mph 65 % 0.00 in 413.0 W/m2 CLR
10:33 65.9 °F 53.8 °F 30.01 in Calm   3.5 mph 65 % 0.00 in 387.0 W/m2 CLR
10:38 65.7 °F 54.0 °F 30.01 in Calm   2.3 mph 66 % 0.00 in 394.0 W/m2 CLR
10:43 66.0 °F 54.3 °F 30.01 in Calm   1.2 mph 66 % 0.00 in 436.0 W/m2 CLR
10:48 66.1 °F 54.0 °F 30.01 in Calm   1.2 mph 65 % 0.00 in 473.0 W/m2 CLR
10:53 66.6 °F 54.5 °F 30.01 in Calm   3.5 mph 65 % 0.00 in 559.0 W/m2 CLR
10:58 66.5 °F 53.9 °F 30.01 in Calm   3.5 mph 64 % 0.00 in 555.0 W/m2 CLR
11:03 66.9 °F 53.9 °F 30.01 in Calm   1.2 mph 63 % 0.00 in 561.0 W/m2 CLR
11:08 67.2 °F 54.6 °F 30.01 in Calm   3.5 mph 64 % 0.00 in 540.0 W/m2 CLR
11:13 67.6 °F 54.1 °F 30.01 in Calm   3.5 mph 62 % 0.00 in 578.0 W/m2 CLR
11:18 68.0 °F 54.9 °F 30.01 in North 0.2 mph 1.2 mph 63 % 0.00 in 631.0 W/m2 CLR
11:23 67.9 °F 54.0 °F 30.01 in Calm   1.2 mph 61 % 0.00 in 608.0 W/m2 CLR
11:28 67.8 °F 53.9 °F 30.01 in Calm   3.5 mph 61 % 0.00 in 526.0 W/m2 CLR
11:33 67.7 °F 53.3 °F 30.00 in Calm   3.5 mph 60 % 0.00 in 566.0 W/m2 CLR
11:38 67.9 °F 54.0 °F 30.00 in Calm   3.5 mph 61 % 0.00 in 580.0 W/m2 CLR
11:43 67.9 °F 54.0 °F 30.00 in NE 1.2 mph 4.6 mph 61 % 0.00 in 587.0 W/m2 CLR
11:48 68.0 °F 53.6 °F 30.00 in Calm   4.6 mph 60 % 0.00 in 497.0 W/m2 CLR
11:53 68.1 °F 54.1 °F 30.00 in Calm   3.5 mph 61 % 0.00 in 489.0 W/m2 CLR
11:58 68.1 °F 53.2 °F 30.00 in Calm   1.2 mph 59 % 0.00 in 534.0 W/m2 CLR
12:03 68.3 °F 53.9 °F 30.00 in Calm   1.2 mph 60 % 0.00 in 575.0 W/m2 CLR
12:08 68.9 °F 54.9 °F 30.00 in NE 0.2 mph   61 % 0.00 in 555.0 W/m2 CLR
12:14 69.1 °F 53.7 °F 30.00 in Calm   2.3 mph 58 % 0.00 in 970.0 W/m2 CLR
12:19 69.5 °F 53.6 °F 29.99 in Calm   2.3 mph 57 % 0.00 in 687.0 W/m2 CLR
12:24 69.9 °F 54.0 °F 29.99 in Calm   1.2 mph 57 % 0.00 in 589.0 W/m2 CLR
12:29 69.7 °F 54.7 °F 29.99 in Calm     59 % 0.00 in 742.0 W/m2 CLR
12:34 69.7 °F 53.3 °F 29.99 in NE 0.4 mph 2.3 mph 56 % 0.00 in 573.0 W/m2 CLR
12:39 69.6 °F 52.7 °F 29.99 in Calm   3.5 mph 55 % 0.00 in 524.0 W/m2 CLR
12:44 70.1 °F 54.2 °F 29.98 in Calm   6.9 mph 57 % 0.00 in 682.0 W/m2 CLR
12:49 70.9 °F 53.9 °F 29.98 in ESE 0.4 mph 6.9 mph 55 % 0.00 in 733.0 W/m2 CLR
12:54 70.9 °F 53.9 °F 29.98 in NNE 1.9 mph 6.9 mph 55 % 0.00 in 947.0 W/m2 CLR
12:59 71.1 °F 54.6 °F 29.98 in SSE 0.2 mph 6.9 mph 56 % 0.00 in 610.0 W/m2 CLR
13:04 70.7 °F 53.2 °F 29.98 in SSE 0.5 mph 3.5 mph 54 % 0.00 in 439.0 W/m2 CLR
13:09 70.7 °F 54.7 °F 29.97 in South 0.2 mph 3.5 mph 57 % 0.00 in 770.0 W/m2 CLR
13:14 70.8 °F 54.3 °F 29.97 in ENE 0.3 mph 3.5 mph 56 % 0.00 in 429.0 W/m2 CLR
13:19 70.6 °F 54.6 °F 29.97 in NNE 0.9 mph 4.6 mph 57 % 0.00 in 722.0 W/m2 CLR
13:24 71.0 °F 53.5 °F 29.97 in NNE 1.0 mph 4.6 mph 54 % 0.00 in 666.0 W/m2 CLR
13:29 70.9 °F 55.4 °F 29.96 in NNE 0.1 mph 4.6 mph 58 % 0.00 in 912.0 W/m2 CLR
13:34 71.0 °F 51.4 °F 29.96 in NNE 0.4 mph 3.5 mph 50 % 0.00 in 749.0 W/m2 CLR
13:39 71.3 °F 52.8 °F 29.96 in NNE 2.3 mph 6.9 mph 52 % 0.00 in 668.0 W/m2 CLR
13:49 71.0 °F 52.5 °F 29.96 in ESE 0.1 mph 6.9 mph 52 % 0.00 in 728.0 W/m2 CLR
13:50 71.0 °F 52.5 °F 29.95 in Calm   4.6 mph 52 % 0.00 in 682.0 W/m2 CLR
13:55 71.2 °F 52.7 °F 29.95 in ESE 1.2 mph 3.5 mph 52 % 0.00 in 652.0 W/m2 CLR
14:00 71.3 °F 51.7 °F 29.95 in East 1.3 mph 3.5 mph 50 % 0.00 in 691.0 W/m2 CLR
14:05 71.4 °F 52.9 °F 29.95 in ENE 0.1 mph 3.5 mph 52 % 0.00 in 673.0 W/m2 CLR
14:10 71.5 °F 51.3 °F 29.95 in NNE 2.1 mph 8.1 mph 49 % 0.00 in 844.0 W/m2 CLR
14:15 71.6 °F 51.4 °F 29.95 in SE 0.1 mph 8.1 mph 49 % 0.00 in 854.0 W/m2 CLR
14:20 71.5 °F 51.3 °F 29.94 in Calm   8.1 mph 49 % 0.00 in 541.0 W/m2 CLR
14:25 71.1 °F 49.8 °F 29.94 in Calm   3.5 mph 47 % 0.00 in 606.0 W/m2 CLR
14:30 71.1 °F 48.7 °F 29.95 in Calm   4.6 mph 45 % 0.00 in 568.0 W/m2 CLR
14:35 71.0 °F 48.0 °F 29.94 in Calm   4.6 mph 44 % 0.00 in 489.0 W/m2 CLR
14:40 70.9 °F 48.5 °F 29.94 in SSE 0.9 mph 3.5 mph 45 % 0.00 in 529.0 W/m2 CLR
14:45 70.8 °F 49.6 °F 29.94 in Calm   5.8 mph 47 % 0.00 in 454.0 W/m2 CLR
14:50 70.7 °F 50.6 °F 29.94 in ENE 0.6 mph 5.8 mph 49 % 0.00 in 475.0 W/m2 CLR
14:55 70.7 °F 50.6 °F 29.94 in Calm   3.5 mph 49 % 0.00 in 592.0 W/m2 CLR
15:00 71.1 °F 51.5 °F 29.94 in ESE 0.3 mph 3.5 mph 50 % 0.00 in 998.0 W/m2 CLR
15:05 71.5 °F 49.6 °F 29.93 in East 1.5 mph 3.5 mph 46 % 0.00 in 817.0 W/m2 CLR
15:10 71.9 °F 49.4 °F 29.93 in Calm   8.1 mph 45 % 0.00 in 828.0 W/m2 CLR
15:15 71.7 °F 51.5 °F 29.93 in North 1.3 mph 8.1 mph 49 % 0.00 in 877.0 W/m2 CLR
15:20 71.4 °F 49.5 °F 29.93 in Calm   3.5 mph 46 % 0.00 in 701.0 W/m2 CLR
15:25 70.9 °F 47.9 °F 29.93 in ESE 0.1 mph 5.8 mph 44 % 0.00 in 812.0 W/m2 CLR
15:30 71.2 °F 49.9 °F 29.93 in Calm   5.8 mph 47 % 0.00 in 812.0 W/m2 CLR
15:35 71.3 °F 48.3 °F 29.92 in Calm   1.2 mph 44 % 0.00 in 343.0 W/m2 CLR
15:40 70.8 °F 49.0 °F 29.92 in ESE 0.6 mph 3.5 mph 46 % 0.00 in 352.0 W/m2 CLR
15:45 70.4 °F 49.2 °F 29.92 in NE 0.1 mph 3.5 mph 47 % 0.00 in 355.0 W/m2 CLR
15:50 70.4 °F 49.8 °F 29.92 in Calm   3.5 mph 48 % 0.00 in 545.0 W/m2 CLR
15:55 70.8 °F 51.2 °F 29.92 in NE 0.1 mph 2.3 mph 50 % 0.00 in 522.0 W/m2 CLR
16:01 70.4 °F 49.8 °F 29.91 in Calm   2.3 mph 48 % 0.00 in 494.0 W/m2 CLR
16:02 70.3 °F 49.7 °F 29.91 in ESE 0.5 mph 2.3 mph 48 % 0.00 in 466.0 W/m2 CLR
16:07 69.7 °F 48.0 °F 29.91 in ESE 1.0 mph 5.8 mph 46 % 0.00 in 367.0 W/m2 CLR
16:12 69.9 °F 48.2 °F 29.91 in Calm   5.8 mph 46 % 0.00 in 353.0 W/m2 CLR
16:17 70.1 °F 50.0 °F 29.91 in Calm   3.5 mph 49 % 0.00 in 346.0 W/m2 CLR
16:22 69.9 °F 47.6 °F 29.91 in ESE 1.1 mph 3.5 mph 45 % 0.00 in 327.0 W/m2 CLR
16:27 69.6 °F 46.1 °F 29.90 in ENE 0.2 mph 3.5 mph 43 % 0.00 in 316.0 W/m2 CLR
16:32 69.3 °F 47.0 °F 29.90 in ESE 0.4 mph 3.5 mph 45 % 0.00 in 336.0 W/m2 CLR
16:37 69.3 °F 48.2 °F 29.90 in Calm   5.8 mph 47 % 0.00 in 330.0 W/m2 CLR
16:42 69.9 °F 47.6 °F 29.90 in Calm   5.8 mph 45 % 0.00 in 517.0 W/m2 CLR
16:47 70.1 °F 48.4 °F 29.90 in NNE 0.5 mph 3.5 mph 46 % 0.00 in 448.0 W/m2 CLR
16:52 70.2 °F 48.4 °F 29.90 in ESE 0.1 mph 3.5 mph 46 % 0.00 in 626.0 W/m2 CLR
16:57 70.2 °F 49.0 °F 29.90 in Calm   3.5 mph 47 % 0.00 in 575.0 W/m2 CLR
17:02 70.3 °F 49.7 °F 29.90 in Calm   3.5 mph 48 % 0.00 in 439.0 W/m2 CLR
17:07 69.7 °F 49.7 °F 29.89 in Calm   3.5 mph 49 % 0.00 in 396.0 W/m2 CLR
17:12 70.2 °F 47.3 °F 29.90 in NE 1.4 mph 4.6 mph 44 % 0.00 in 631.0 W/m2 CLR
17:17 70.2 °F 47.3 °F 29.89 in ENE 0.3 mph 8.1 mph 44 % 0.00 in 401.0 W/m2 CLR
17:22 70.5 °F 48.7 °F 29.89 in Calm   8.1 mph 46 % 0.00 in 622.0 W/m2 CLR
17:27 70.6 °F 48.2 °F 29.89 in Calm   2.3 mph 45 % 0.00 in 420.0 W/m2 CLR
17:37 70.6 °F 47.0 °F 29.89 in Calm   5.8 mph 43 % 0.00 in 522.0 W/m2 CLR
17:42 70.9 °F 47.9 °F 29.88 in Calm   5.8 mph 44 % 0.00 in 517.0 W/m2 CLR
17:47 70.8 °F 46.6 °F 29.88 in Calm   3.5 mph 42 % 0.00 in 473.0 W/m2 CLR
17:52 70.5 °F 44.3 °F 29.88 in NNE 0.2 mph 1.2 mph 39 % 0.00 in 364.0 W/m2 CLR
17:57 70.7 °F 45.2 °F 29.88 in North 0.5 mph 3.5 mph 40 % 0.00 in 397.0 W/m2 CLR
18:02 70.7 °F 44.5 °F 29.88 in NE 0.1 mph 3.5 mph 39 % 0.00 in 401.0 W/m2 CLR
18:07 70.7 °F 45.2 °F 29.87 in Calm   3.5 mph 40 % 0.00 in 380.0 W/m2 CLR
18:12 70.8 °F 45.9 °F 29.87 in NNE 0.1 mph 3.5 mph 41 % 0.00 in 357.0 W/m2 CLR
18:17 70.6 °F 45.7 °F 29.87 in Calm   3.5 mph 41 % 0.00 in 343.0 W/m2 CLR
18:23 70.1 °F 46.6 °F 29.87 in Calm   2.3 mph 43 % 0.00 in 322.0 W/m2 CLR
18:28 69.9 °F 45.8 °F 29.87 in SE 0.2 mph 5.8 mph 42 % 0.00 in 306.0 W/m2 CLR
18:33 69.8 °F 45.0 °F 29.86 in Calm   5.8 mph 41 % 0.00 in 287.0 W/m2 CLR
18:38 70.0 °F 45.8 °F 29.87 in Calm   3.5 mph 42 % 0.00 in 269.0 W/m2 CLR
18:43 69.8 °F 46.9 °F 29.86 in Calm   2.3 mph 44 % 0.00 in 255.0 W/m2 CLR
18:48 69.5 °F 46.0 °F 29.86 in Calm   2.3 mph 43 % 0.00 in 236.0 W/m2 CLR
18:53 69.3 °F 47.0 °F 29.87 in East 0.5 mph 3.5 mph 45 % 0.00 in 214.0 W/m2 CLR
18:58 69.2 °F 46.4 °F 29.86 in NNE 0.5 mph 3.5 mph 44 % 0.00 in 193.0 W/m2 CLR
19:03 69.0 °F 46.2 °F 29.86 in East 0.2 mph 3.5 mph 44 % 0.00 in 176.0 W/m2 CLR
19:08 68.6 °F 47.0 °F 29.86 in Calm   3.5 mph 46 % 0.00 in 155.0 W/m2 CLR
19:13 68.4 °F 46.8 °F 29.86 in Calm   1.2 mph 46 % 0.00 in 135.0 W/m2 CLR
19:18 68.1 °F 47.1 °F 29.86 in Calm   2.3 mph 47 % 0.00 in 120.0 W/m2 CLR
19:23 67.9 °F 47.5 °F 29.86 in Calm   2.3 mph 48 % 0.00 in 105.0 W/m2 CLR
19:28 67.7 °F 47.3 °F 29.86 in Calm   1.2 mph 48 % 0.00 in 90.0 W/m2 CLR
19:33 67.4 °F 47.0 °F 29.86 in ENE 0.1 mph 2.3 mph 48 % 0.00 in 39.0 W/m2 CLR
19:38 67.1 °F 45.6 °F 29.86 in Calm   3.5 mph 46 % 0.00 in 37.0 W/m2 CLR
19:43 66.8 °F 46.5 °F 29.85 in Calm   3.5 mph 48 % 0.00 in 39.0 W/m2 CLR
19:48 66.6 °F 45.7 °F 29.85 in Calm   2.3 mph 47 % 0.00 in 42.0 W/m2 CLR
19:53 66.3 °F 46.0 °F 29.85 in Calm   2.3 mph 48 % 0.00 in 42.0 W/m2 CLR
19:58 66.2 °F 45.9 °F 29.85 in Calm   1.2 mph 48 % 0.00 in 40.0 W/m2 CLR
20:03 66.0 °F 45.7 °F 29.85 in Calm   1.2 mph 48 % 0.00 in 35.0 W/m2 CLR
20:08 65.8 °F 45.6 °F 29.85 in Calm     48 % 0.00 in 26.0 W/m2 CLR
20:13 65.4 °F 45.7 °F 29.85 in East 0.1 mph 1.2 mph 49 % 0.00 in 21.0 W/m2 CLR
20:18 65.1 °F 45.5 °F 29.85 in Calm   1.2 mph 49 % 0.00 in 14.0 W/m2 CLR
20:23 64.8 °F 45.2 °F 29.85 in Calm   1.2 mph 49 % 0.00 in 9.0 W/m2 CLR
20:28 64.5 °F 44.4 °F 29.85 in Calm     48 % 0.00 in 5.0 W/m2 CLR
20:33 64.2 °F 43.0 °F 29.84 in Calm     46 % 0.00 in 0.0 W/m2 CLR
20:38 63.9 °F 41.5 °F 29.85 in Calm     44 % 0.00 in 0.0 W/m2 CLR
20:43 63.7 °F 40.8 °F 29.85 in Calm     43 % 0.00 in 0.0 W/m2 CLR
20:48 63.3 °F 40.4 °F 29.85 in Calm     43 % 0.00 in 0.0 W/m2 CLR
20:54 63.0 °F 40.7 °F 29.85 in Calm     44 % 0.00 in 0.0 W/m2 CLR
20:59 62.5 °F 40.9 °F 29.85 in Calm     45 % 0.00 in 0.0 W/m2 CLR
21:04 62.4 °F 41.3 °F 29.85 in Calm     46 % 0.00 in 0.0 W/m2 CLR
21:09 62.3 °F 41.2 °F 29.85 in Calm     46 % 0.00 in 0.0 W/m2 CLR
21:14 62.2 °F 41.2 °F 29.85 in Calm     46 % 0.00 in 0.0 W/m2 CLR
21:19 61.8 °F 41.3 °F 29.84 in Calm     47 % 0.00 in 0.0 W/m2 CLR
21:24 61.6 °F 41.2 °F 29.84 in Calm     47 % 0.00 in 0.0 W/m2 CLR
21:29 61.4 °F 41.0 °F 29.84 in Calm     47 % 0.00 in 0.0 W/m2 CLR
21:34 61.0 °F 41.7 °F 29.84 in Calm     49 % 0.00 in 0.0 W/m2 CLR
21:39 60.8 °F 41.5 °F 29.84 in Calm     49 % 0.00 in 0.0 W/m2 CLR
21:44 60.6 °F 41.8 °F 29.84 in Calm     50 % 0.00 in 0.0 W/m2 CLR
21:49 60.2 °F 42.5 °F 29.84 in Calm     52 % 0.00 in 0.0 W/m2 CLR
21:54 59.9 °F 42.7 °F 29.84 in Calm     53 % 0.00 in 0.0 W/m2 CLR
21:59 59.6 °F 41.9 °F 29.84 in Calm     52 % 0.00 in 0.0 W/m2 CLR
22:04 59.4 °F 42.3 °F 29.84 in Calm     53 % 0.00 in 0.0 W/m2 CLR
22:09 59.4 °F 42.7 °F 29.84 in Calm     54 % 0.00 in 0.0 W/m2 CLR
22:14 59.3 °F 43.1 °F 29.84 in Calm     55 % 0.00 in 0.0 W/m2 CLR
22:19 59.2 °F 42.6 °F 29.84 in Calm     54 % 0.00 in 0.0 W/m2 CLR
22:24 59.3 °F 43.6 °F 29.84 in Calm     56 % 0.00 in 0.0 W/m2 CLR
22:29 59.2 °F 43.5 °F 29.84 in Calm     56 % 0.00 in 0.0 W/m2 CLR
22:34 58.5 °F 43.3 °F 29.84 in Calm     57 % 0.00 in 0.0 W/m2 CLR
22:39 58.2 °F 43.5 °F 29.84 in Calm     58 % 0.00 in 0.0 W/m2 CLR
22:44 58.1 °F 43.8 °F 29.84 in Calm     59 % 0.00 in 0.0 W/m2 CLR
22:49 57.9 °F 43.7 °F 29.84 in Calm     59 % 0.00 in 0.0 W/m2 CLR
22:54 57.7 °F 43.9 °F 29.84 in Calm     60 % 0.00 in 0.0 W/m2 CLR
22:59 57.3 °F 44.0 °F 29.84 in Calm     61 % 0.00 in 0.0 W/m2 CLR
23:04 56.7 °F 43.8 °F 29.83 in Calm     62 % 0.00 in 0.0 W/m2 CLR
23:10 56.6 °F 44.1 °F 29.83 in Calm     63 % 0.00 in 0.0 W/m2 CLR
23:15 56.3 °F 44.3 °F 29.83 in Calm     64 % 0.00 in 0.0 W/m2 CLR
23:20 56.2 °F 44.6 °F 29.83 in Calm     65 % 0.00 in 0.0 W/m2 CLR
23:25 56.2 °F 44.6 °F 29.83 in Calm     65 % 0.00 in 0.0 W/m2 CLR
23:30 55.7 °F 44.5 °F 29.83 in Calm     66 % 0.00 in 0.0 W/m2 CLR
23:35 55.5 °F 44.7 °F 29.83 in Calm     67 % 0.00 in 0.0 W/m2 CLR
23:40 55.3 °F 44.5 °F 29.83 in Calm     67 % 0.00 in 0.0 W/m2 CLR
23:45 55.2 °F 44.8 °F 29.82 in Calm     68 % 0.00 in 0.0 W/m2 CLR
23:50 55.1 °F 45.1 °F 29.82 in Calm     69 % 0.00 in 0.0 W/m2 CLR
23:55 54.8 °F 45.2 °F 29.82 in Calm     70 % 0.00 in 0.0 W/m2 CLR
Air Products Campus Weather
Compliments of Weather Underground - 3.25 mb